ROMMA est une association bénévole à but non lucratif. Votre soutien est indispensable : ADHERER à ROMMA ou FAIRE un DON

Le Versoud - (38, Isère)

Vallée du Grésivaudan (220 m)   Longitude: 05° 51' 44" E   Latitude: 45° 13' 06" N Station partenaire n°6
 

Détail journalier du     <<     >>

Température Precipitation Humidité Pression Vent Dir Rafale Dir. rafale Ensol.
Heure (°C) (mm) (%) (hPa) (km/h) (km/h) (min)
01:00 3.3074102800---0
02:00 1.8083102800---0
03:00 1.2086102800---0
04:00 0.7085102900---0
05:00 0.2086102900---0
06:00 -0.4088102900---0
07:00 -0.7090102900---0
08:00 -0.7091103000---0
09:00 2.6082103000---20
10:00 5.9064103000---60
11:00 7.3056103000---60
12:00 9.2049103003E60
13:00 10.405010291NO11ONO60
14:00 11.604510291N16O60
15:00 12.90401028011NO60
16:00 13.903710281NO13NO60
17:00 13.903610273N16N60
18:00 13.403610283NE21NE60
19:00 11.60411028011NNE25
20:00 8.8053102900---0
21:00 7.1064102900---0
22:00 5.8068102900---0
23:00 5.0071102900---0
minuit 3.8077103000---0

Graphique du 20-03-2019

 

Serveur OMMA